Time;durP1;ratioP1;P1;durP2;ratioP2;P2;SDS_P1;SDS_P2;PMS_P1;PMS_P2;Temp;Humidity;BMP_temperature;BMP_pressure;BME280_temperature;BME280_humidity;BME280_pressure;Samples;Min_cycle;Max_cycle;Signal;HPM_P1;HPM_P2
2023/01/13 06:35:27;;;;;;;52.97;28.42;;;;;;;;;;4870870;23;20079;-73
2023/01/13 06:37:55;;;;;;;47.78;26.80;;;;;;;;;;4915562;29;20035;-72
2023/01/13 06:40:21;;;;;;;46.78;24.75;;;;;;;;;;4915794;29;20055;-72
2023/01/13 06:45:32;;;;;;;42.92;21.38;;;;;;;;;;4915181;29;20134;-72
2023/01/13 06:47:59;;;;;;;30.67;17.92;;;;;;;;;;4917143;29;20025;-71
2023/01/13 06:50:27;;;;;;;32.25;17.45;;;;;;;;;;4915551;29;20126;-70
2023/01/13 06:52:53;;;;;;;30.23;16.85;;;;;;;;;;4915224;29;20071;-71
2023/01/13 06:55:19;;;;;;;29.65;16.45;;;;;;;;;;4903744;29;20036;-71
2023/01/13 06:57:48;;;;;;;32.03;17.42;;;;;;;;;;4905227;29;20040;-70
2023/01/13 07:00:15;;;;;;;31.92;17.90;;;;;;;;;;4904968;29;20037;-71
2023/01/13 07:02:41;;;;;;;28.27;16.42;;;;;;;;;;4879343;29;20485;-70
2023/01/13 07:05:07;;;;;;;27.48;15.60;;;;;;;;;;4897231;29;20073;-71
2023/01/13 07:07:33;;;;;;;27.35;14.90;;;;;;;;;;4904401;29;20074;-71
2023/01/13 07:09:59;;;;;;;26.90;15.00;;;;;;;;;;4889950;29;20032;-72
2023/01/13 07:12:25;;;;;;;23.73;13.98;;;;;;;;;;4922785;29;20028;-72
2023/01/13 07:17:36;;;;;;;24.45;15.55;;;;;;;;;;4923926;29;20055;-73
2023/01/13 07:20:02;;;;;;;19.58;13.85;;;;;;;;;;4924109;29;20368;-72
2023/01/13 07:22:28;;;;;;;19.40;12.85;;;;;;;;;;4903430;29;20043;-73
2023/01/13 07:24:55;;;;;;;24.50;12.23;;;;;;;;;;4922491;29;20544;-70
2023/01/13 07:27:21;;;;;;;21.52;12.63;;;;;;;;;;4924063;29;20467;-71
2023/01/13 07:29:47;;;;;;;25.48;13.88;;;;;;;;;;4923063;29;20534;-72
2023/01/13 07:32:14;;;;;;;21.40;14.48;;;;;;;;;;4922403;29;20055;-70
2023/01/13 07:34:40;;;;;;;26.55;14.82;;;;;;;;;;4923371;29;20415;-72
2023/01/13 07:37:06;;;;;;;25.50;14.52;;;;;;;;;;4922850;29;20094;-70
2023/01/13 07:39:32;;;;;;;22.75;12.88;;;;;;;;;;4921782;29;20116;-71
2023/01/13 07:44:43;;;;;;;14.23;9.10;;;;;;;;;;4917796;29;20088;-72
2023/01/13 07:47:10;;;;;;;13.77;8.90;;;;;;;;;;4921213;29;20108;-71
2023/01/13 07:49:36;;;;;;;17.73;9.70;;;;;;;;;;4923715;29;20387;-71
2023/01/13 07:52:02;;;;;;;14.07;8.20;;;;;;;;;;4922073;29;20052;-71
2023/01/13 07:54:28;;;;;;;15.38;9.10;;;;;;;;;;4923409;29;20498;-71
2023/01/13 07:56:57;;;;;;;12.52;8.18;;;;;;;;;;4921195;29;20028;-69
2023/01/13 07:59:23;;;;;;;20.00;12.30;;;;;;;;;;4903913;29;20043;-74
2023/01/13 08:01:51;;;;;;;13.68;8.65;;;;;;;;;;4931702;29;20035;-70
2023/01/13 08:04:17;;;;;;;16.60;10.57;;;;;;;;;;4920977;29;20028;-71
2023/01/13 08:06:43;;;;;;;19.23;12.90;;;;;;;;;;4919383;29;20020;-70
2023/01/13 08:09:09;;;;;;;22.60;13.60;;;;;;;;;;4928395;29;20084;-70
2023/01/13 08:11:35;;;;;;;26.77;13.80;;;;;;;;;;4921818;29;20032;-71
2023/01/13 08:14:02;;;;;;;16.90;10.30;;;;;;;;;;4924149;29;20542;-72
2023/01/13 08:16:28;;;;;;;13.57;9.75;;;;;;;;;;4932765;29;20032;-71
2023/01/13 08:18:54;;;;;;;41.75;23.98;;;;;;;;;;4932108;29;20038;-71
2023/01/13 08:21:20;;;;;;;22.52;13.30;;;;;;;;;;4932671;29;20094;-71
2023/01/13 08:23:46;;;;;;;23.42;14.45;;;;;;;;;;4930396;29;20039;-73
2023/01/13 08:26:13;;;;;;;13.13;8.30;;;;;;;;;;4914701;29;20032;-71
2023/01/13 08:28:40;;;;;;;15.13;9.55;;;;;;;;;;4919652;29;20040;-67
2023/01/13 08:31:10;;;;;;;15.02;10.07;;;;;;;;;;4921295;29;20443;-67
2023/01/13 08:33:36;;;;;;;20.05;11.15;;;;;;;;;;4919154;29;20048;-67
2023/01/13 08:36:05;;;;;;;20.40;12.13;;;;;;;;;;4926479;29;20117;-72
2023/01/13 08:38:32;;;;;;;23.25;11.80;;;;;;;;;;4932045;29;20035;-71
2023/01/13 08:40:58;;;;;;;18.70;12.88;;;;;;;;;;4923102;29;20036;-69
2023/01/13 08:43:24;;;;;;;24.92;14.63;;;;;;;;;;4919702;29;20027;-67
2023/01/13 08:46:00;;;;;;;18.02;12.70;;;;;;;;;;4920416;29;20039;-70
2023/01/13 08:48:27;;;;;;;22.98;14.32;;;;;;;;;;4920933;29;20135;-68
2023/01/13 08:50:53;;;;;;;20.00;12.73;;;;;;;;;;4923381;29;20023;-70
2023/01/13 08:53:20;;;;;;;28.52;16.13;;;;;;;;;;4925680;29;20035;-68
2023/01/13 08:55:46;;;;;;;21.95;14.45;;;;;;;;;;4933679;29;20107;-70
2023/01/13 08:58:12;;;;;;;21.70;12.60;;;;;;;;;;4935119;29;20039;-71
2023/01/13 09:00:38;;;;;;;19.80;12.40;;;;;;;;;;4911798;29;20071;-68
2023/01/13 09:03:04;;;;;;;18.92;11.73;;;;;;;;;;4918610;29;20024;-68
2023/01/13 09:05:31;;;;;;;20.85;12.98;;;;;;;;;;4916884;29;20107;-73
2023/01/13 09:07:57;;;;;;;17.60;12.05;;;;;;;;;;4916651;29;20024;-71
2023/01/13 09:10:23;;;;;;;16.48;10.07;;;;;;;;;;4918184;29;20047;-70
2023/01/13 09:15:34;;;;;;;19.52;11.27;;;;;;;;;;4914640;29;20051;-72
2023/01/13 09:18:01;;;;;;;22.20;12.73;;;;;;;;;;4897079;29;20151;-71
2023/01/13 09:20:27;;;;;;;48.05;23.13;;;;;;;;;;4917032;29;20023;-70
2023/01/13 09:22:53;;;;;;;53.15;24.98;;;;;;;;;;4919110;29;20024;-71
2023/01/13 09:25:19;;;;;;;31.92;17.20;;;;;;;;;;4904508;29;20411;-71
2023/01/13 09:27:45;;;;;;;17.77;12.10;;;;;;;;;;4909637;29;20119;-70
2023/01/13 09:30:11;;;;;;;20.50;11.85;;;;;;;;;;4922940;29;20043;-70
2023/01/13 09:32:37;;;;;;;18.70;12.05;;;;;;;;;;4921266;29;20028;-67
2023/01/13 09:35:05;;;;;;;20.02;12.15;;;;;;;;;;4921971;29;20076;-69
2023/01/13 09:37:35;;;;;;;23.60;13.05;;;;;;;;;;4916831;29;20035;-68
2023/01/13 09:40:02;;;;;;;22.13;12.65;;;;;;;;;;4916217;29;20030;-64
2023/01/13 09:45:20;;;;;;;26.67;14.45;;;;;;;;;;4923862;29;20047;-65
2023/01/13 09:48:01;;;;;;;23.42;15.10;;;;;;;;;;4922170;29;20366;-65
2023/01/13 09:50:34;;;;;;;28.65;16.75;;;;;;;;;;4921728;29;20632;-65
2023/01/13 09:53:03;;;;;;;30.95;17.55;;;;;;;;;;4916524;29;20028;-65
2023/01/13 09:55:33;;;;;;;47.42;26.17;;;;;;;;;;4916430;29;20032;-67
2023/01/13 09:58:01;;;;;;;29.63;17.02;;;;;;;;;;4916325;29;20138;-66
2023/01/13 10:00:33;;;;;;;26.75;16.40;;;;;;;;;;4915929;29;20031;-65
2023/01/13 10:03:09;;;;;;;28.83;16.67;;;;;;;;;;4916987;29;20476;-66
2023/01/13 10:05:39;;;;;;;26.88;16.90;;;;;;;;;;4911854;29;20488;-64
2023/01/13 10:08:18;;;;;;;30.10;17.60;;;;;;;;;;4928898;29;20038;-65
2023/01/13 10:10:45;;;;;;;29.10;16.92;;;;;;;;;;4926920;29;20055;-63
2023/01/13 10:13:14;;;;;;;33.95;18.52;;;;;;;;;;4917182;29;20503;-67
2023/01/13 10:15:47;;;;;;;32.83;18.33;;;;;;;;;;4919987;29;20483;-65
2023/01/13 10:18:17;;;;;;;33.30;18.50;;;;;;;;;;4935031;29;20115;-65
2023/01/13 10:21:08;;;;;;;31.73;18.30;;;;;;;;;;4935266;29;20043;-67
2023/01/13 10:23:45;;;;;;;34.58;18.67;;;;;;;;;;4934640;29;20054;-67
2023/01/13 10:26:24;;;;;;;36.38;18.48;;;;;;;;;;4935057;29;20535;-65
2023/01/13 10:28:53;;;;;;;36.22;18.75;;;;;;;;;;4917317;29;20036;-67
2023/01/13 10:31:20;;;;;;;54.92;27.45;;;;;;;;;;4915803;29;20032;-66
2023/01/13 10:33:47;;;;;;;34.05;19.42;;;;;;;;;;4910143;29;20080;-65
2023/01/13 10:36:14;;;;;;;35.42;19.80;;;;;;;;;;4897042;29;20036;-66
2023/01/13 10:38:41;;;;;;;32.38;18.63;;;;;;;;;;4903254;29;20039;-62
2023/01/13 10:41:17;;;;;;;30.73;17.77;;;;;;;;;;4915872;29;20032;-63
2023/01/13 10:44:03;;;;;;;37.55;19.58;;;;;;;;;;4916042;29;20028;-65
2023/01/13 10:46:30;;;;;;;35.03;19.55;;;;;;;;;;4914319;29;20016;-64
2023/01/13 10:48:58;;;;;;;40.33;20.33;;;;;;;;;;4900097;29;20122;-66
2023/01/13 10:51:39;;;;;;;36.47;19.48;;;;;;;;;;4915070;29;20028;-63
2023/01/13 10:54:11;;;;;;;34.50;19.05;;;;;;;;;;4915557;29;20140;-66
2023/01/13 10:56:37;;;;;;;;;;;;;;;;;;4915906;29;20103;-65
2023/01/13 10:59:12;;;;;;;34.30;18.88;;;;;;;;;;4915088;29;20002;-65
2023/01/13 11:01:40;;;;;;;32.50;18.13;;;;;;;;;;4915661;29;20064;-67
2023/01/13 11:04:24;;;;;;;37.13;19.17;;;;;;;;;;4915303;29;20092;-64
2023/01/13 11:06:50;;;;;;;33.10;18.98;;;;;;;;;;4915192;29;20515;-68
2023/01/13 11:09:20;;;;;;;34.33;19.40;;;;;;;;;;4915274;29;20044;-63
2023/01/13 11:11:48;;;;;;;36.97;20.15;;;;;;;;;;4913959;29;20070;-65
2023/01/13 11:14:32;;;;;;;38.25;18.90;;;;;;;;;;4915269;29;20028;-65
2023/01/13 11:17:01;;;;;;;36.72;21.00;;;;;;;;;;4915111;29;20851;-65
2023/01/13 11:19:28;;;;;;;40.30;21.35;;;;;;;;;;4915183;29;20028;-63
2023/01/13 11:21:54;;;;;;;41.40;21.00;;;;;;;;;;4913535;29;20036;-67
2023/01/13 11:24:35;;;;;;;37.15;21.75;;;;;;;;;;4913390;29;20107;-64
2023/01/13 11:27:07;;;;;;;40.92;20.92;;;;;;;;;;4915428;29;20460;-63
2023/01/13 11:29:39;;;;;;;41.22;22.15;;;;;;;;;;4914789;29;20047;-66
2023/01/13 11:32:18;;;;;;;37.65;21.05;;;;;;;;;;4915084;29;20029;-66
2023/01/13 11:34:46;;;;;;;36.55;20.35;;;;;;;;;;4914457;29;20067;-66
2023/01/13 11:37:26;;;;;;;36.30;19.38;;;;;;;;;;4914772;29;20074;-64
2023/01/13 11:39:56;;;;;;;35.13;20.08;;;;;;;;;;4914869;29;20087;-64
2023/01/13 11:42:29;;;;;;;37.92;20.10;;;;;;;;;;4914819;29;20036;-65
2023/01/13 11:44:55;;;;;;;35.13;19.80;;;;;;;;;;4916005;29;20024;-65
2023/01/13 11:47:23;;;;;;;36.88;19.38;;;;;;;;;;4914888;29;20488;-67
2023/01/13 11:49:49;;;;;;;31.17;18.20;;;;;;;;;;4920235;29;20094;-63
2023/01/13 11:52:21;;;;;;;36.33;19.55;;;;;;;;;;4933499;29;20361;-63
2023/01/13 11:54:47;;;;;;;38.85;20.17;;;;;;;;;;4934128;29;20468;-68
2023/01/13 11:57:13;;;;;;;35.38;20.27;;;;;;;;;;4934068;29;20036;-63
2023/01/13 11:59:42;;;;;;;35.83;19.15;;;;;;;;;;4933716;29;20031;-64
2023/01/13 12:02:20;;;;;;;33.38;18.23;;;;;;;;;;4933883;29;20027;-64
2023/01/13 12:04:46;;;;;;;31.10;17.20;;;;;;;;;;4933461;29;20547;-66
2023/01/13 12:07:35;;;;;;;33.67;18.33;;;;;;;;;;4933110;29;20027;-64
2023/01/13 12:10:22;;;;;;;27.65;16.38;;;;;;;;;;4930969;29;20114;-67
2023/01/13 12:12:51;;;;;;;28.52;17.23;;;;;;;;;;4931058;29;20038;-64
2023/01/13 12:15:23;;;;;;;28.60;17.25;;;;;;;;;;4914193;29;20047;-64
2023/01/13 12:17:49;;;;;;;32.28;18.95;;;;;;;;;;4914492;29;20063;-66
2023/01/13 12:20:21;;;;;;;33.60;17.25;;;;;;;;;;4913932;29;20059;-64
2023/01/13 12:22:48;;;;;;;33.83;18.73;;;;;;;;;;4914738;29;20032;-67
2023/01/13 12:25:36;;;;;;;32.00;18.08;;;;;;;;;;4914890;29;20040;-64
2023/01/13 12:28:06;;;;;;;31.48;17.48;;;;;;;;;;4905762;29;20066;-64
2023/01/13 12:30:44;;;;;;;30.88;18.38;;;;;;;;;;4917842;29;20044;-64
2023/01/13 12:33:23;;;;;;;28.00;16.98;;;;;;;;;;4917553;29;20119;-65
2023/01/13 12:35:55;;;;;;;26.55;16.70;;;;;;;;;;4898797;29;20080;-64
2023/01/13 12:38:27;;;;;;;26.75;15.65;;;;;;;;;;4898829;29;20036;-65
2023/01/13 12:40:59;;;;;;;26.75;15.70;;;;;;;;;;4898704;29;20024;-64
2023/01/13 12:46:22;;;;;;;26.65;17.00;;;;;;;;;;4898597;29;20051;-64
2023/01/13 12:48:51;;;;;;;31.42;17.38;;;;;;;;;;4898850;29;20055;-64
2023/01/13 12:51:24;;;;;;;34.05;19.08;;;;;;;;;;4898411;29;20437;-65
2023/01/13 12:53:51;;;;;;;34.67;18.85;;;;;;;;;;4898382;29;20035;-64
2023/01/13 12:56:36;;;;;;;30.77;19.42;;;;;;;;;;4898589;29;20029;-64
2023/01/13 12:59:14;;;;;;;36.10;21.20;;;;;;;;;;4898704;29;20028;-65
2023/01/13 13:01:41;;;;;;;34.42;19.77;;;;;;;;;;4898277;29;20021;-66
2023/01/13 13:04:08;;;;;;;31.05;17.88;;;;;;;;;;4898340;29;20036;-65
2023/01/13 13:06:36;;;;;;;32.85;19.02;;;;;;;;;;4898162;29;20085;-69
2023/01/13 13:09:13;;;;;;;32.75;19.90;;;;;;;;;;4897971;29;20078;-68
2023/01/13 13:14:38;;;;;;;33.90;20.35;;;;;;;;;;4898244;29;20089;-63
2023/01/13 13:17:25;;;;;;;38.15;22.02;;;;;;;;;;4898646;29;20042;-65
2023/01/13 13:19:51;;;;;;;37.65;21.75;;;;;;;;;;4821748;29;20414;-65
2023/01/13 13:22:40;;;;;;;41.42;21.70;;;;;;;;;;4821555;29;20038;-65
2023/01/13 13:25:20;;;;;;;39.40;22.80;;;;;;;;;;4785660;30;20089;-65
2023/01/13 13:27:50;;;;;;;38.42;24.23;;;;;;;;;;4785440;30;20081;-66
2023/01/13 13:30:28;;;;;;;45.42;25.05;;;;;;;;;;4785580;29;20055;-65
2023/01/13 13:32:54;;;;;;;43.38;25.17;;;;;;;;;;4785443;30;20036;-68
2023/01/13 13:35:42;;;;;;;45.20;25.55;;;;;;;;;;4785036;29;20120;-66
2023/01/13 13:46:48;;;;;;;50.97;26.88;;;;;;;;;;4785399;30;20078;-64
2023/01/13 13:49:15;;;;;;;53.40;28.80;;;;;;;;;;4785074;29;20497;-65
2023/01/13 13:51:45;;;;;;;56.38;31.88;;;;;;;;;;4784615;30;20062;-64
2023/01/13 13:54:19;;;;;;;55.13;31.30;;;;;;;;;;4785109;30;20039;-63
2023/01/13 13:56:46;;;;;;;50.30;27.75;;;;;;;;;;4807462;29;20121;-64
2023/01/13 13:59:13;;;;;;;48.00;27.52;;;;;;;;;;4839633;29;20073;-66
2023/01/13 14:01:41;;;;;;;47.03;27.30;;;;;;;;;;4856640;29;20409;-63
2023/01/13 14:04:12;;;;;;;49.63;27.85;;;;;;;;;;4897274;29;20040;-63
2023/01/13 14:06:38;;;;;;;50.50;29.38;;;;;;;;;;4897211;29;20063;-69
2023/01/13 14:09:04;;;;;;;50.90;29.65;;;;;;;;;;4896966;29;20033;-63
2023/01/13 14:11:31;;;;;;;51.47;29.33;;;;;;;;;;4896523;29;20047;-65
2023/01/13 14:14:05;;;;;;;49.72;28.17;;;;;;;;;;4897192;29;20024;-66
2023/01/13 14:16:32;;;;;;;47.83;26.90;;;;;;;;;;4897184;29;20091;-64
2023/01/13 14:18:58;;;;;;;48.17;27.05;;;;;;;;;;4896956;29;20031;-66
2023/01/13 14:21:28;;;;;;;46.33;26.88;;;;;;;;;;4897133;29;20043;-67
2023/01/13 14:23:59;;;;;;;49.33;27.42;;;;;;;;;;4896260;29;20039;-66
2023/01/13 14:26:26;;;;;;;49.67;26.20;;;;;;;;;;4897082;29;20032;-62
2023/01/13 14:28:53;;;;;;;46.95;26.67;;;;;;;;;;4896739;29;20135;-65
2023/01/13 14:31:19;;;;;;;50.38;27.80;;;;;;;;;;4896721;29;20035;-62
2023/01/13 14:33:46;;;;;;;52.40;28.42;;;;;;;;;;4898711;29;20052;-67
2023/01/13 14:36:14;;;;;;;54.80;29.85;;;;;;;;;;4915376;29;20028;-64
2023/01/13 14:38:41;;;;;;;51.15;28.60;;;;;;;;;;4914930;29;20484;-62
2023/01/13 14:41:18;;;;;;;55.05;29.90;;;;;;;;;;4915560;29;20039;-62
2023/01/13 14:43:45;;;;;;;53.72;29.83;;;;;;;;;;4915558;29;20392;-65
2023/01/13 14:46:11;;;;;;;54.55;30.38;;;;;;;;;;4915501;29;20481;-65
2023/01/13 14:48:38;;;;;;;55.20;30.85;;;;;;;;;;4915106;29;20032;-62
2023/01/13 14:51:09;;;;;;;62.20;30.85;;;;;;;;;;4915241;29;20039;-63
2023/01/13 14:53:42;;;;;;;59.13;32.63;;;;;;;;;;4915483;29;20028;-62
2023/01/13 14:56:07;;;;;;;;;;;;;;;;;;4915777;29;20080;-66
2023/01/13 14:58:34;;;;;;;65.47;33.55;;;;;;;;;;4915286;29;20452;-64
2023/01/13 15:01:18;;;;;;;63.33;34.00;;;;;;;;;;4923958;29;20032;-69
2023/01/13 15:03:44;;;;;;;66.85;34.90;;;;;;;;;;4927509;29;20035;-68
2023/01/13 15:06:23;;;;;;;71.20;35.75;;;;;;;;;;4922613;29;20082;-66
2023/01/13 15:08:50;;;;;;;69.65;36.65;;;;;;;;;;4922207;29;20380;-70
2023/01/13 15:11:23;;;;;;;73.20;39.10;;;;;;;;;;4923314;29;20031;-69
2023/01/13 15:13:57;;;;;;;74.18;40.17;;;;;;;;;;4921359;29;20031;-63
2023/01/13 15:16:24;;;;;;;79.75;41.28;;;;;;;;;;4919169;29;20032;-63
2023/01/13 15:18:51;;;;;;;78.18;41.53;;;;;;;;;;4914895;29;20039;-62
2023/01/13 15:21:17;;;;;;;75.03;41.08;;;;;;;;;;4914724;29;20389;-63
2023/01/13 15:23:43;;;;;;;80.97;41.97;;;;;;;;;;4914793;29;20054;-63
2023/01/13 15:26:15;;;;;;;83.32;41.92;;;;;;;;;;4914973;29;20055;-66
2023/01/13 15:28:41;;;;;;;86.85;44.53;;;;;;;;;;4914994;29;20047;-63
2023/01/13 15:31:07;;;;;;;85.25;44.53;;;;;;;;;;4914683;29;20068;-63
2023/01/13 15:33:33;;;;;;;86.00;45.45;;;;;;;;;;4914391;29;20051;-63
2023/01/13 15:36:00;;;;;;;82.00;43.22;;;;;;;;;;4914331;29;20463;-63
2023/01/13 15:38:26;;;;;;;85.95;43.28;;;;;;;;;;4920179;29;20015;-63
2023/01/13 15:40:53;;;;;;;85.68;42.78;;;;;;;;;;4933594;29;20066;-64
2023/01/13 15:49:08;;;;;;;87.45;44.03;;;;;;;;;;4933612;29;20495;-63
2023/01/13 15:51:36;;;;;;;82.55;42.92;;;;;;;;;;4933723;29;20372;-63
2023/01/13 15:54:02;;;;;;;82.30;43.22;;;;;;;;;;4933212;29;20439;-68
2023/01/13 15:56:29;;;;;;;82.88;43.28;;;;;;;;;;4933730;29;20062;-63
2023/01/13 15:58:55;;;;;;;84.40;42.53;;;;;;;;;;4933198;29;20037;-63
2023/01/13 16:01:22;;;;;;;81.90;43.40;;;;;;;;;;4936106;29;20034;-66
2023/01/13 16:03:48;;;;;;;87.22;45.35;;;;;;;;;;4937190;29;20443;-68
2023/01/13 16:06:16;;;;;;;85.13;43.63;;;;;;;;;;4937096;29;20391;-66
2023/01/13 16:08:42;;;;;;;87.10;46.58;;;;;;;;;;4936940;29;20050;-70
2023/01/13 16:11:09;;;;;;;90.93;47.55;;;;;;;;;;4937000;29;20035;-69
2023/01/13 16:13:35;;;;;;;96.43;47.33;;;;;;;;;;4936535;29;20028;-69
2023/01/13 16:16:01;;;;;;;87.95;46.35;;;;;;;;;;4936970;29;20036;-73
2023/01/13 16:18:27;;;;;;;82.32;43.25;;;;;;;;;;4937006;29;20023;-75
2023/01/13 16:20:54;;;;;;;80.32;42.95;;;;;;;;;;4936658;29;20119;-77
2023/01/13 16:23:21;;;;;;;79.82;40.20;;;;;;;;;;4937010;29;20031;-75
2023/01/13 16:25:47;;;;;;;75.68;39.70;;;;;;;;;;4936850;29;20032;-81
2023/01/13 16:28:25;;;;;;;75.20;38.00;;;;;;;;;;4937344;29;20119;-73
2023/01/13 16:30:51;;;;;;;79.35;40.63;;;;;;;;;;4933208;29;20400;-78
2023/01/13 16:33:17;;;;;;;79.65;41.35;;;;;;;;;;4922352;29;20436;-80
2023/01/13 16:35:43;;;;;;;76.38;39.75;;;;;;;;;;4898478;29;20445;-76
2023/01/13 16:38:13;;;;;;;78.60;40.70;;;;;;;;;;4903061;29;20055;-81
2023/01/13 16:40:39;;;;;;;83.78;41.90;;;;;;;;;;4917558;29;20021;-69
2023/01/13 16:43:06;;;;;;;84.57;42.35;;;;;;;;;;4917402;29;20040;-74
2023/01/13 16:45:32;;;;;;;83.22;43.53;;;;;;;;;;4917742;29;20027;-72
2023/01/13 16:47:59;;;;;;;94.13;47.85;;;;;;;;;;4915419;29;20423;-71
2023/01/13 16:50:32;;;;;;;97.38;48.80;;;;;;;;;;4917712;29;20094;-80
2023/01/13 16:52:58;;;;;;;110.75;53.35;;;;;;;;;;4917675;29;20075;-77
2023/01/13 16:55:25;;;;;;;120.60;61.53;;;;;;;;;;4918028;29;20106;-73
2023/01/13 16:57:51;;;;;;;124.22;59.97;;;;;;;;;;4917973;29;20028;-82
2023/01/13 17:00:18;;;;;;;128.07;60.72;;;;;;;;;;4918118;29;20034;-76
2023/01/13 17:02:44;;;;;;;121.63;60.28;;;;;;;;;;4917986;29;20020;-73
2023/01/13 17:05:11;;;;;;;123.38;59.13;;;;;;;;;;4916621;29;20040;-73
2023/01/13 17:07:37;;;;;;;98.75;50.95;;;;;;;;;;4911463;29;20115;-70
2023/01/13 17:10:04;;;;;;;97.47;49.25;;;;;;;;;;4917579;29;20119;-70
2023/01/13 17:12:30;;;;;;;92.32;47.03;;;;;;;;;;4916964;29;20031;-71
2023/01/13 17:14:56;;;;;;;102.70;50.60;;;;;;;;;;4915436;29;20404;-71
2023/01/13 17:17:23;;;;;;;84.03;42.70;;;;;;;;;;4917189;29;20039;-71
2023/01/13 17:19:50;;;;;;;84.53;43.78;;;;;;;;;;4917169;29;20039;-72
2023/01/13 17:22:16;;;;;;;81.72;42.42;;;;;;;;;;4917016;29;20468;-69
2023/01/13 17:24:42;;;;;;;84.78;43.10;;;;;;;;;;4917186;29;20043;-70
2023/01/13 17:27:08;;;;;;;86.10;44.75;;;;;;;;;;4917234;29;20076;-69
2023/01/13 17:29:34;;;;;;;88.10;44.42;;;;;;;;;;4917181;29;20090;-71
2023/01/13 17:32:01;;;;;;;94.53;49.58;;;;;;;;;;4917080;29;20028;-71
2023/01/13 17:34:27;;;;;;;97.43;48.15;;;;;;;;;;4905082;29;20517;-72
2023/01/13 17:36:53;;;;;;;82.38;42.20;;;;;;;;;;4917086;29;20055;-73
2023/01/13 17:39:21;;;;;;;84.55;41.42;;;;;;;;;;4916830;29;20028;-71
2023/01/13 17:41:47;;;;;;;74.70;38.88;;;;;;;;;;4916970;29;20024;-71
2023/01/13 17:44:14;;;;;;;72.45;38.35;;;;;;;;;;4916742;29;20067;-71
2023/01/13 17:46:41;;;;;;;66.45;34.67;;;;;;;;;;4910141;29;20902;-71
2023/01/13 17:49:07;;;;;;;63.33;34.25;;;;;;;;;;4916646;29;20043;-72
2023/01/13 17:51:33;;;;;;;67.85;34.20;;;;;;;;;;4916294;29;20107;-71
2023/01/13 17:53:59;;;;;;;70.68;35.03;;;;;;;;;;4916634;29;20722;-71
2023/01/13 17:56:25;;;;;;;67.20;34.72;;;;;;;;;;4916732;29;20597;-70
2023/01/13 17:58:51;;;;;;;71.97;36.08;;;;;;;;;;4916193;29;20063;-71
2023/01/13 18:01:19;;;;;;;68.80;35.95;;;;;;;;;;4915564;29;20025;-68
2023/01/13 18:03:45;;;;;;;66.95;33.08;;;;;;;;;;4915674;29;20040;-72
2023/01/13 18:06:15;;;;;;;68.90;36.58;;;;;;;;;;4913519;29;20119;-74
2023/01/13 18:08:41;;;;;;;65.93;34.25;;;;;;;;;;4897709;29;20092;-71
2023/01/13 18:11:07;;;;;;;72.43;37.20;;;;;;;;;;4897647;29;20037;-69
2023/01/13 18:13:34;;;;;;;70.97;36.40;;;;;;;;;;4897197;29;20024;-72
2023/01/13 18:16:11;;;;;;;76.22;38.40;;;;;;;;;;4897519;29;20035;-71
2023/01/13 18:18:37;;;;;;;54.97;29.00;;;;;;;;;;4897260;29;20025;-73
2023/01/13 18:29:18;;;;;;;57.97;30.23;;;;;;;;;;4899891;29;20054;-68
2023/01/13 18:31:44;;;;;;;58.05;29.35;;;;;;;;;;4908844;29;20024;-71
2023/01/13 18:34:10;;;;;;;61.15;30.33;;;;;;;;;;4922256;29;20056;-69
2023/01/13 18:36:37;;;;;;;59.67;30.00;;;;;;;;;;4934682;29;20132;-69
2023/01/13 18:39:03;;;;;;;51.78;28.10;;;;;;;;;;4934758;29;20039;-70
2023/01/13 18:44:14;;;;;;;48.35;26.45;;;;;;;;;;4931383;29;20470;-70
2023/01/13 18:46:40;;;;;;;52.22;27.05;;;;;;;;;;4928072;29;20032;-68
2023/01/13 18:49:06;;;;;;;51.42;26.58;;;;;;;;;;4922142;29;20032;-69
2023/01/13 18:51:32;;;;;;;55.38;27.48;;;;;;;;;;4924019;29;20506;-73
2023/01/13 18:53:59;;;;;;;53.45;27.48;;;;;;;;;;4925962;29;20400;-70
2023/01/13 18:56:25;;;;;;;51.45;26.30;;;;;;;;;;4934573;29;20034;-71
2023/01/13 18:58:52;;;;;;;46.00;25.88;;;;;;;;;;4923668;29;20039;-73
2023/01/13 19:01:24;;;;;;;50.72;26.73;;;;;;;;;;4917513;29;20028;-73
2023/01/13 19:04:01;;;;;;;50.78;27.38;;;;;;;;;;4920849;29;20090;-73
2023/01/13 19:06:30;;;;;;;53.08;27.55;;;;;;;;;;4934276;29;20059;-74
2023/01/13 19:08:56;;;;;;;50.75;27.48;;;;;;;;;;4919666;29;20028;-72
2023/01/13 19:11:23;;;;;;;52.70;30.40;;;;;;;;;;4933112;29;20038;-76
2023/01/13 19:13:50;;;;;;;54.63;29.67;;;;;;;;;;4928693;29;20039;-74
2023/01/13 19:16:20;;;;;;;57.55;29.60;;;;;;;;;;4920441;29;20052;-74
2023/01/13 19:18:46;;;;;;;60.85;32.60;;;;;;;;;;4916741;29;20035;-71
2023/01/13 19:21:12;;;;;;;54.92;30.25;;;;;;;;;;4934212;29;20122;-68
2023/01/13 19:23:39;;;;;;;51.05;27.27;;;;;;;;;;4934018;29;20024;-64
2023/01/13 19:26:07;;;;;;;54.42;28.15;;;;;;;;;;4934413;29;20044;-65
2023/01/13 19:28:33;;;;;;;51.05;28.20;;;;;;;;;;4918808;29;20032;-64
2023/01/13 19:31:00;;;;;;;51.42;26.77;;;;;;;;;;4915288;29;20469;-64
2023/01/13 19:33:29;;;;;;;49.92;26.95;;;;;;;;;;4913877;29;20056;-65
2023/01/13 19:35:56;;;;;;;47.33;25.30;;;;;;;;;;4914861;29;20032;-64
2023/01/13 19:38:22;;;;;;;45.60;26.20;;;;;;;;;;4914740;29;20135;-64
2023/01/13 19:40:55;;;;;;;50.35;26.88;;;;;;;;;;4918435;29;20102;-64
2023/01/13 19:46:07;;;;;;;46.70;25.42;;;;;;;;;;4915085;29;20926;-62
2023/01/13 19:48:33;;;;;;;46.65;25.48;;;;;;;;;;4929487;29;20048;-63
2023/01/13 19:50:59;;;;;;;45.58;25.90;;;;;;;;;;4933957;29;20126;-69
2023/01/13 19:53:26;;;;;;;49.75;26.50;;;;;;;;;;4933661;29;20028;-62
2023/01/13 19:55:52;;;;;;;46.83;23.83;;;;;;;;;;4922624;29;20058;-63
2023/01/13 19:58:18;;;;;;;42.17;23.35;;;;;;;;;;4914840;29;20457;-62
2023/01/13 20:00:48;;;;;;;59.13;33.40;;;;;;;;;;4897733;29;20028;-62
2023/01/13 20:03:14;;;;;;;77.13;37.75;;;;;;;;;;4914474;29;20353;-62
2023/01/13 20:05:41;;;;;;;71.90;34.85;;;;;;;;;;4914727;29;20036;-64
2023/01/13 20:08:08;;;;;;;56.38;28.80;;;;;;;;;;4918134;29;20419;-62
2023/01/13 20:10:35;;;;;;;45.67;24.40;;;;;;;;;;4927948;29;20040;-62
2023/01/13 20:13:01;;;;;;;48.30;26.60;;;;;;;;;;4925250;29;20463;-62
2023/01/13 20:15:27;;;;;;;47.65;25.42;;;;;;;;;;4914493;29;20032;-62
2023/01/13 20:17:53;;;;;;;44.80;23.77;;;;;;;;;;4914421;29;20040;-62
2023/01/13 20:20:19;;;;;;;45.25;24.55;;;;;;;;;;4914071;29;20087;-64
2023/01/13 20:22:45;;;;;;;46.33;24.30;;;;;;;;;;4923362;29;20032;-67
2023/01/13 20:25:15;;;;;;;46.08;24.85;;;;;;;;;;4934044;29;20039;-68
2023/01/13 20:27:41;;;;;;;43.33;24.10;;;;;;;;;;4933380;29;20028;-63
2023/01/13 20:30:13;;;;;;;48.83;25.40;;;;;;;;;;4930373;29;20075;-62
2023/01/13 20:32:39;;;;;;;72.07;20.38;;;;;;;;;;4927956;29;20024;-66
2023/01/13 20:35:09;;;;;;;44.17;24.48;;;;;;;;;;4905187;29;20040;-63
2023/01/13 20:37:37;;;;;;;44.33;24.55;;;;;;;;;;4895637;29;20056;-64
2023/01/13 20:40:04;;;;;;;44.55;24.08;;;;;;;;;;4895130;29;20041;-70
2023/01/13 20:42:43;;;;;;;42.33;23.27;;;;;;;;;;4893589;29;20032;-69
2023/01/13 20:45:09;;;;;;;41.97;22.40;;;;;;;;;;4895584;29;20029;-65
2023/01/13 20:47:35;;;;;;;49.00;24.23;;;;;;;;;;4902763;29;20029;-65
2023/01/13 20:50:01;;;;;;;41.75;23.23;;;;;;;;;;4917295;29;20036;-71
2023/01/13 20:52:27;;;;;;;46.45;24.00;;;;;;;;;;4918136;29;20028;-66
2023/01/13 20:54:53;;;;;;;44.53;23.48;;;;;;;;;;4917755;29;20111;-68
2023/01/13 20:57:20;;;;;;;41.30;22.13;;;;;;;;;;4917849;29;20487;-62
2023/01/13 20:59:46;;;;;;;37.05;21.27;;;;;;;;;;4916597;29;20028;-67
2023/01/13 21:02:13;;;;;;;41.83;21.98;;;;;;;;;;4905261;29;20107;-63
2023/01/13 21:04:39;;;;;;;40.55;22.02;;;;;;;;;;4907060;29;20037;-66
2023/01/13 21:07:06;;;;;;;37.20;21.48;;;;;;;;;;4916037;29;20043;-70
2023/01/13 21:09:32;;;;;;;34.20;19.73;;;;;;;;;;4916813;29;20028;-64
2023/01/13 21:20:13;;;;;;;38.30;21.98;;;;;;;;;;4911957;29;20047;-67
2023/01/13 21:22:39;;;;;;;37.47;21.75;;;;;;;;;;4916381;29;20110;-69
2023/01/13 21:25:06;;;;;;;42.72;22.58;;;;;;;;;;4905423;29;20050;-66
2023/01/13 21:27:33;;;;;;;44.67;22.90;;;;;;;;;;4907171;29;20388;-68
2023/01/13 21:29:59;;;;;;;42.92;22.17;;;;;;;;;;4907357;29;20068;-75
2023/01/13 21:32:25;;;;;;;37.00;20.98;;;;;;;;;;4906934;29;20032;-73
2023/01/13 21:34:51;;;;;;;39.17;20.75;;;;;;;;;;4907389;29;20060;-70
2023/01/13 21:37:17;;;;;;;37.53;20.65;;;;;;;;;;4898994;29;20032;-70
2023/01/13 21:39:43;;;;;;;39.45;20.35;;;;;;;;;;4916649;29;20039;-68
2023/01/13 21:47:47;;;;;;;36.55;20.33;;;;;;;;;;4898314;29;20076;-65
2023/01/13 21:50:15;;;;;;;37.15;20.20;;;;;;;;;;4897831;29;20040;-70
2023/01/13 21:52:43;;;;;;;42.97;21.77;;;;;;;;;;4898228;29;20036;-69
2023/01/13 21:55:19;;;;;;;37.42;20.83;;;;;;;;;;4897610;29;20028;-63
2023/01/13 21:57:48;;;;;;;34.95;19.65;;;;;;;;;;4896623;29;20029;-62
2023/01/13 22:00:15;;;;;;;33.33;18.98;;;;;;;;;;4910430;29;20043;-69
2023/01/13 22:02:42;;;;;;;32.88;18.08;;;;;;;;;;4916598;29;20491;-72